sensor_id;sensor_type;location;lat;lon;timestamp;P1;durP1;ratioP1;P2;durP2;ratioP2
9563;SDS011;4820;50.870;4.702;2022-12-26T00:01:57;6.35;;;4.90;;
9563;SDS011;4820;50.870;4.702;2022-12-26T00:04:24;6.22;;;5.05;;
9563;SDS011;4820;50.870;4.702;2022-12-26T00:06:50;6.20;;;5.30;;
9563;SDS011;4820;50.870;4.702;2022-12-26T00:09:15;5.57;;;4.68;;
9563;SDS011;4820;50.870;4.702;2022-12-26T00:11:41;6.22;;;5.07;;
9563;SDS011;4820;50.870;4.702;2022-12-26T00:14:09;6.90;;;5.20;;
9563;SDS011;4820;50.870;4.702;2022-12-26T00:16:37;5.35;;;4.70;;
9563;SDS011;4820;50.870;4.702;2022-12-26T00:19:04;5.18;;;4.68;;
9563;SDS011;4820;50.870;4.702;2022-12-26T00:21:30;5.90;;;5.07;;
9563;SDS011;4820;50.870;4.702;2022-12-26T00:23:56;5.35;;;4.25;;
9563;SDS011;4820;50.870;4.702;2022-12-26T00:26:28;5.13;;;4.63;;
9563;SDS011;4820;50.870;4.702;2022-12-26T00:28:54;4.68;;;4.28;;
9563;SDS011;4820;50.870;4.702;2022-12-26T00:31:25;5.22;;;4.43;;
9563;SDS011;4820;50.870;4.702;2022-12-26T00:33:53;5.20;;;4.70;;
9563;SDS011;4820;50.870;4.702;2022-12-26T00:36:23;5.35;;;4.72;;
9563;SDS011;4820;50.870;4.702;2022-12-26T00:38:52;5.20;;;4.70;;
9563;SDS011;4820;50.870;4.702;2022-12-26T00:41:18;5.95;;;5.38;;
9563;SDS011;4820;50.870;4.702;2022-12-26T00:43:44;6.05;;;5.45;;
9563;SDS011;4820;50.870;4.702;2022-12-26T00:46:10;6.20;;;5.10;;
9563;SDS011;4820;50.870;4.702;2022-12-26T00:48:36;6.10;;;5.50;;
9563;SDS011;4820;50.870;4.702;2022-12-26T00:51:02;5.93;;;5.30;;
9563;SDS011;4820;50.870;4.702;2022-12-26T00:53:28;6.60;;;5.30;;
9563;SDS011;4820;50.870;4.702;2022-12-26T00:55:55;6.10;;;5.15;;
9563;SDS011;4820;50.870;4.702;2022-12-26T00:58:21;6.10;;;5.50;;
9563;SDS011;4820;50.870;4.702;2022-12-26T01:00:47;5.63;;;5.03;;
9563;SDS011;4820;50.870;4.702;2022-12-26T01:03:13;7.15;;;5.80;;
9563;SDS011;4820;50.870;4.702;2022-12-26T01:05:43;7.07;;;5.75;;
9563;SDS011;4820;50.870;4.702;2022-12-26T01:08:15;6.45;;;5.15;;
9563;SDS011;4820;50.870;4.702;2022-12-26T01:10:43;6.82;;;5.40;;
9563;SDS011;4820;50.870;4.702;2022-12-26T01:13:09;8.35;;;6.07;;
9563;SDS011;4820;50.870;4.702;2022-12-26T01:15:35;7.07;;;5.70;;
9563;SDS011;4820;50.870;4.702;2022-12-26T01:18:01;8.48;;;6.22;;
9563;SDS011;4820;50.870;4.702;2022-12-26T01:20:27;7.63;;;5.78;;
9563;SDS011;4820;50.870;4.702;2022-12-26T01:22:54;8.05;;;6.15;;
9563;SDS011;4820;50.870;4.702;2022-12-26T01:25:20;7.32;;;5.93;;
9563;SDS011;4820;50.870;4.702;2022-12-26T01:27:46;7.82;;;6.20;;
9563;SDS011;4820;50.870;4.702;2022-12-26T01:30:12;7.20;;;6.50;;
9563;SDS011;4820;50.870;4.702;2022-12-26T01:32:37;8.90;;;7.28;;
9563;SDS011;4820;50.870;4.702;2022-12-26T01:35:03;8.32;;;6.15;;
9563;SDS011;4820;50.870;4.702;2022-12-26T01:37:29;7.53;;;6.78;;
9563;SDS011;4820;50.870;4.702;2022-12-26T01:39:55;7.35;;;6.40;;
9563;SDS011;4820;50.870;4.702;2022-12-26T01:42:22;9.75;;;7.25;;
9563;SDS011;4820;50.870;4.702;2022-12-26T01:44:59;8.95;;;6.78;;
9563;SDS011;4820;50.870;4.702;2022-12-26T01:47:34;7.65;;;6.85;;
9563;SDS011;4820;50.870;4.702;2022-12-26T01:50:35;7.28;;;6.57;;
9563;SDS011;4820;50.870;4.702;2022-12-26T01:53:01;8.05;;;6.38;;
9563;SDS011;4820;50.870;4.702;2022-12-26T01:55:33;7.63;;;6.47;;
9563;SDS011;4820;50.870;4.702;2022-12-26T01:58:08;6.50;;;5.80;;
9563;SDS011;4820;50.870;4.702;2022-12-26T02:00:38;6.15;;;5.45;;
9563;SDS011;4820;50.870;4.702;2022-12-26T02:03:05;6.13;;;5.45;;
9563;SDS011;4820;50.870;4.702;2022-12-26T02:05:51;5.50;;;5.00;;
9563;SDS011;4820;50.870;4.702;2022-12-26T02:08:29;5.15;;;4.43;;
9563;SDS011;4820;50.870;4.702;2022-12-26T02:13:35;4.55;;;4.15;;
9563;SDS011;4820;50.870;4.702;2022-12-26T02:16:05;4.57;;;3.97;;
9563;SDS011;4820;50.870;4.702;2022-12-26T02:18:34;3.88;;;3.50;;
9563;SDS011;4820;50.870;4.702;2022-12-26T02:21:12;4.35;;;3.58;;
9563;SDS011;4820;50.870;4.702;2022-12-26T02:26:34;3.13;;;2.92;;
9563;SDS011;4820;50.870;4.702;2022-12-26T02:40:46;2.42;;;2.22;;
9563;SDS011;4820;50.870;4.702;2022-12-26T02:45:38;2.50;;;2.30;;
9563;SDS011;4820;50.870;4.702;2022-12-26T02:57:50;3.55;;;2.10;;
9563;SDS011;4820;50.870;4.702;2022-12-26T03:00:48;2.13;;;1.92;;
9563;SDS011;4820;50.870;4.702;2022-12-26T03:03:40;2.17;;;1.90;;
9563;SDS011;4820;50.870;4.702;2022-12-26T03:06:28;2.17;;;1.98;;
9563;SDS011;4820;50.870;4.702;2022-12-26T03:09:19;2.13;;;1.92;;
9563;SDS011;4820;50.870;4.702;2022-12-26T03:12:53;2.50;;;1.90;;
9563;SDS011;4820;50.870;4.702;2022-12-26T03:15:27;1.90;;;1.80;;
9563;SDS011;4820;50.870;4.702;2022-12-26T03:18:15;2.20;;;1.80;;
9563;SDS011;4820;50.870;4.702;2022-12-26T03:20:43;2.72;;;1.77;;
9563;SDS011;4820;50.870;4.702;2022-12-26T03:23:10;2.22;;;1.95;;
9563;SDS011;4820;50.870;4.702;2022-12-26T03:28:57;2.33;;;2.00;;
9563;SDS011;4820;50.870;4.702;2022-12-26T03:31:43;4.25;;;2.20;;
9563;SDS011;4820;50.870;4.702;2022-12-26T03:34:09;2.50;;;2.30;;
9563;SDS011;4820;50.870;4.702;2022-12-26T03:45:34;3.75;;;2.95;;
9563;SDS011;4820;50.870;4.702;2022-12-26T03:48:23;3.63;;;2.60;;
9563;SDS011;4820;50.870;4.702;2022-12-26T03:54:40;2.92;;;2.72;;
9563;SDS011;4820;50.870;4.702;2022-12-26T03:57:30;2.90;;;2.70;;
9563;SDS011;4820;50.870;4.702;2022-12-26T04:00:21;4.20;;;2.70;;
9563;SDS011;4820;50.870;4.702;2022-12-26T04:03:08;3.90;;;2.75;;
9563;SDS011;4820;50.870;4.702;2022-12-26T04:05:55;5.47;;;2.63;;
9563;SDS011;4820;50.870;4.702;2022-12-26T04:08:50;2.85;;;2.60;;
9563;SDS011;4820;50.870;4.702;2022-12-26T04:11:44;3.42;;;2.60;;
9563;SDS011;4820;50.870;4.702;2022-12-26T04:15:04;2.58;;;2.38;;
9563;SDS011;4820;50.870;4.702;2022-12-26T04:18:19;3.17;;;2.50;;
9563;SDS011;4820;50.870;4.702;2022-12-26T04:23:53;2.83;;;2.30;;
9563;SDS011;4820;50.870;4.702;2022-12-26T04:26:43;2.50;;;2.28;;
9563;SDS011;4820;50.870;4.702;2022-12-26T04:29:30;3.35;;;2.30;;
9563;SDS011;4820;50.870;4.702;2022-12-26T04:35:38;2.97;;;2.30;;
9563;SDS011;4820;50.870;4.702;2022-12-26T04:38:45;5.22;;;2.10;;
9563;SDS011;4820;50.870;4.702;2022-12-26T04:41:35;2.95;;;2.10;;
9563;SDS011;4820;50.870;4.702;2022-12-26T04:44:20;2.58;;;2.10;;
9563;SDS011;4820;50.870;4.702;2022-12-26T04:46:48;2.58;;;2.13;;
9563;SDS011;4820;50.870;4.702;2022-12-26T04:49:16;2.10;;;1.90;;
9563;SDS011;4820;50.870;4.702;2022-12-26T04:52:02;3.38;;;2.53;;
9563;SDS011;4820;50.870;4.702;2022-12-26T04:54:31;2.47;;;2.20;;
9563;SDS011;4820;50.870;4.702;2022-12-26T04:56:59;1.95;;;1.70;;
9563;SDS011;4820;50.870;4.702;2022-12-26T04:59:26;2.35;;;1.77;;
9563;SDS011;4820;50.870;4.702;2022-12-26T05:01:52;2.50;;;2.15;;
9563;SDS011;4820;50.870;4.702;2022-12-26T05:04:36;2.80;;;1.80;;
9563;SDS011;4820;50.870;4.702;2022-12-26T05:07:21;2.40;;;2.15;;
9563;SDS011;4820;50.870;4.702;2022-12-26T05:10:19;2.20;;;1.80;;
9563;SDS011;4820;50.870;4.702;2022-12-26T05:12:49;2.20;;;1.95;;
9563;SDS011;4820;50.870;4.702;2022-12-26T05:15:15;3.47;;;1.92;;
9563;SDS011;4820;50.870;4.702;2022-12-26T05:17:41;2.05;;;1.85;;
9563;SDS011;4820;50.870;4.702;2022-12-26T05:20:26;2.28;;;1.92;;
9563;SDS011;4820;50.870;4.702;2022-12-26T05:23:13;2.83;;;1.70;;
9563;SDS011;4820;50.870;4.702;2022-12-26T05:26:03;3.35;;;1.80;;
9563;SDS011;4820;50.870;4.702;2022-12-26T05:28:55;2.45;;;2.05;;
9563;SDS011;4820;50.870;4.702;2022-12-26T05:31:24;3.50;;;2.15;;
9563;SDS011;4820;50.870;4.702;2022-12-26T05:33:49;1.92;;;1.60;;
9563;SDS011;4820;50.870;4.702;2022-12-26T05:36:47;3.50;;;1.77;;
9563;SDS011;4820;50.870;4.702;2022-12-26T05:39:15;2.00;;;1.42;;
9563;SDS011;4820;50.870;4.702;2022-12-26T05:41:41;2.40;;;1.30;;
9563;SDS011;4820;50.870;4.702;2022-12-26T05:44:07;1.33;;;1.23;;
9563;SDS011;4820;50.870;4.702;2022-12-26T05:46:34;1.92;;;1.55;;
9563;SDS011;4820;50.870;4.702;2022-12-26T05:49:00;3.42;;;1.50;;
9563;SDS011;4820;50.870;4.702;2022-12-26T05:51:26;1.73;;;1.38;;
9563;SDS011;4820;50.870;4.702;2022-12-26T05:53:52;1.95;;;1.38;;
9563;SDS011;4820;50.870;4.702;2022-12-26T05:56:18;1.30;;;1.20;;
9563;SDS011;4820;50.870;4.702;2022-12-26T05:58:44;1.45;;;1.20;;
9563;SDS011;4820;50.870;4.702;2022-12-26T06:01:15;3.70;;;1.38;;
9563;SDS011;4820;50.870;4.702;2022-12-26T06:03:45;1.42;;;1.30;;
9563;SDS011;4820;50.870;4.702;2022-12-26T06:06:12;1.40;;;1.25;;
9563;SDS011;4820;50.870;4.702;2022-12-26T06:08:38;2.33;;;1.20;;
9563;SDS011;4820;50.870;4.702;2022-12-26T06:11:05;1.30;;;1.15;;
9563;SDS011;4820;50.870;4.702;2022-12-26T06:13:32;1.52;;;1.30;;
9563;SDS011;4820;50.870;4.702;2022-12-26T06:15:58;2.88;;;1.00;;
9563;SDS011;4820;50.870;4.702;2022-12-26T06:18:28;1.98;;;1.10;;
9563;SDS011;4820;50.870;4.702;2022-12-26T06:20:53;1.65;;;1.15;;
9563;SDS011;4820;50.870;4.702;2022-12-26T06:23:19;2.13;;;1.20;;
9563;SDS011;4820;50.870;4.702;2022-12-26T06:25:51;1.75;;;1.20;;
9563;SDS011;4820;50.870;4.702;2022-12-26T06:30:51;1.73;;;1.30;;
9563;SDS011;4820;50.870;4.702;2022-12-26T06:33:17;2.15;;;1.27;;
9563;SDS011;4820;50.870;4.702;2022-12-26T06:35:43;1.38;;;1.02;;
9563;SDS011;4820;50.870;4.702;2022-12-26T06:38:09;4.85;;;1.25;;
9563;SDS011;4820;50.870;4.702;2022-12-26T06:40:41;2.83;;;1.10;;
9563;SDS011;4820;50.870;4.702;2022-12-26T06:43:07;3.03;;;1.17;;
9563;SDS011;4820;50.870;4.702;2022-12-26T06:45:33;1.48;;;0.93;;
9563;SDS011;4820;50.870;4.702;2022-12-26T06:47:59;1.70;;;1.17;;
9563;SDS011;4820;50.870;4.702;2022-12-26T06:50:25;1.40;;;0.98;;
9563;SDS011;4820;50.870;4.702;2022-12-26T06:52:51;1.85;;;1.10;;
9563;SDS011;4820;50.870;4.702;2022-12-26T06:55:18;2.42;;;1.30;;
9563;SDS011;4820;50.870;4.702;2022-12-26T06:57:43;3.05;;;1.10;;
9563;SDS011;4820;50.870;4.702;2022-12-26T07:00:09;2.95;;;1.10;;
9563;SDS011;4820;50.870;4.702;2022-12-26T07:02:36;1.45;;;1.10;;
9563;SDS011;4820;50.870;4.702;2022-12-26T07:05:01;1.48;;;1.00;;
9563;SDS011;4820;50.870;4.702;2022-12-26T07:07:27;2.08;;;1.10;;
9563;SDS011;4820;50.870;4.702;2022-12-26T07:09:53;2.58;;;1.00;;
9563;SDS011;4820;50.870;4.702;2022-12-26T07:12:19;2.67;;;0.93;;
9563;SDS011;4820;50.870;4.702;2022-12-26T07:14:46;1.35;;;0.98;;
9563;SDS011;4820;50.870;4.702;2022-12-26T07:17:12;1.52;;;1.20;;
9563;SDS011;4820;50.870;4.702;2022-12-26T07:19:37;1.52;;;1.10;;
9563;SDS011;4820;50.870;4.702;2022-12-26T07:22:03;4.10;;;1.38;;
9563;SDS011;4820;50.870;4.702;2022-12-26T07:24:29;3.10;;;1.00;;
9563;SDS011;4820;50.870;4.702;2022-12-26T07:26:54;1.92;;;1.20;;
9563;SDS011;4820;50.870;4.702;2022-12-26T07:29:21;2.20;;;1.00;;
9563;SDS011;4820;50.870;4.702;2022-12-26T07:31:47;2.45;;;0.98;;
9563;SDS011;4820;50.870;4.702;2022-12-26T07:34:13;1.90;;;1.13;;
9563;SDS011;4820;50.870;4.702;2022-12-26T07:36:39;1.35;;;1.08;;
9563;SDS011;4820;50.870;4.702;2022-12-26T07:39:05;2.97;;;1.25;;
9563;SDS011;4820;50.870;4.702;2022-12-26T07:41:32;2.35;;;0.95;;
9563;SDS011;4820;50.870;4.702;2022-12-26T07:44:16;2.45;;;1.25;;
9563;SDS011;4820;50.870;4.702;2022-12-26T07:46:42;3.58;;;1.13;;
9563;SDS011;4820;50.870;4.702;2022-12-26T07:49:09;3.15;;;1.20;;
9563;SDS011;4820;50.870;4.702;2022-12-26T07:51:36;3.78;;;1.20;;
9563;SDS011;4820;50.870;4.702;2022-12-26T07:54:02;2.13;;;1.23;;
9563;SDS011;4820;50.870;4.702;2022-12-26T07:56:27;2.90;;;1.23;;
9563;SDS011;4820;50.870;4.702;2022-12-26T07:58:53;1.70;;;1.05;;
9563;SDS011;4820;50.870;4.702;2022-12-26T08:01:18;3.25;;;1.20;;
9563;SDS011;4820;50.870;4.702;2022-12-26T08:03:46;2.72;;;1.30;;
9563;SDS011;4820;50.870;4.702;2022-12-26T08:06:12;2.80;;;1.30;;
9563;SDS011;4820;50.870;4.702;2022-12-26T08:08:38;2.97;;;1.10;;
9563;SDS011;4820;50.870;4.702;2022-12-26T08:11:04;2.05;;;1.00;;
9563;SDS011;4820;50.870;4.702;2022-12-26T08:13:31;2.75;;;1.05;;
9563;SDS011;4820;50.870;4.702;2022-12-26T08:15:58;3.63;;;1.17;;
9563;SDS011;4820;50.870;4.702;2022-12-26T08:18:27;3.70;;;1.30;;
9563;SDS011;4820;50.870;4.702;2022-12-26T08:20:53;4.05;;;1.27;;
9563;SDS011;4820;50.870;4.702;2022-12-26T08:23:19;3.50;;;1.10;;
9563;SDS011;4820;50.870;4.702;2022-12-26T08:25:44;3.80;;;1.42;;
9563;SDS011;4820;50.870;4.702;2022-12-26T08:28:10;3.78;;;1.33;;
9563;SDS011;4820;50.870;4.702;2022-12-26T08:30:37;3.28;;;1.20;;
9563;SDS011;4820;50.870;4.702;2022-12-26T08:33:05;1.85;;;1.13;;
9563;SDS011;4820;50.870;4.702;2022-12-26T08:35:32;4.45;;;1.52;;
9563;SDS011;4820;50.870;4.702;2022-12-26T08:38:00;3.22;;;1.42;;
9563;SDS011;4820;50.870;4.702;2022-12-26T08:40:26;1.83;;;1.10;;
9563;SDS011;4820;50.870;4.702;2022-12-26T08:42:52;2.05;;;1.20;;
9563;SDS011;4820;50.870;4.702;2022-12-26T08:45:17;2.90;;;1.30;;
9563;SDS011;4820;50.870;4.702;2022-12-26T08:47:43;4.18;;;1.50;;
9563;SDS011;4820;50.870;4.702;2022-12-26T08:50:10;4.82;;;1.45;;
9563;SDS011;4820;50.870;4.702;2022-12-26T08:52:35;1.52;;;1.13;;
9563;SDS011;4820;50.870;4.702;2022-12-26T08:55:01;4.13;;;1.48;;
9563;SDS011;4820;50.870;4.702;2022-12-26T08:57:28;4.50;;;1.58;;
9563;SDS011;4820;50.870;4.702;2022-12-26T08:59:54;5.28;;;1.65;;
9563;SDS011;4820;50.870;4.702;2022-12-26T09:02:19;2.53;;;1.17;;
9563;SDS011;4820;50.870;4.702;2022-12-26T09:04:45;3.88;;;1.50;;
9563;SDS011;4820;50.870;4.702;2022-12-26T09:07:11;3.95;;;1.63;;
9563;SDS011;4820;50.870;4.702;2022-12-26T09:09:37;5.43;;;1.30;;
9563;SDS011;4820;50.870;4.702;2022-12-26T09:12:03;3.28;;;1.48;;
9563;SDS011;4820;50.870;4.702;2022-12-26T09:14:29;3.90;;;1.20;;
9563;SDS011;4820;50.870;4.702;2022-12-26T09:16:55;2.42;;;1.20;;
9563;SDS011;4820;50.870;4.702;2022-12-26T09:19:21;6.30;;;1.52;;
9563;SDS011;4820;50.870;4.702;2022-12-26T09:21:47;2.60;;;1.35;;
9563;SDS011;4820;50.870;4.702;2022-12-26T09:24:14;3.05;;;1.65;;
9563;SDS011;4820;50.870;4.702;2022-12-26T09:26:41;4.25;;;1.50;;
9563;SDS011;4820;50.870;4.702;2022-12-26T09:29:11;4.95;;;1.85;;
9563;SDS011;4820;50.870;4.702;2022-12-26T09:31:37;4.65;;;1.55;;
9563;SDS011;4820;50.870;4.702;2022-12-26T09:34:03;4.43;;;1.50;;
9563;SDS011;4820;50.870;4.702;2022-12-26T09:36:31;4.13;;;1.45;;
9563;SDS011;4820;50.870;4.702;2022-12-26T09:38:59;4.75;;;1.60;;
9563;SDS011;4820;50.870;4.702;2022-12-26T09:41:35;4.43;;;1.73;;
9563;SDS011;4820;50.870;4.702;2022-12-26T09:45:16;5.90;;;1.80;;
9563;SDS011;4820;50.870;4.702;2022-12-26T09:49:58;5.97;;;1.70;;
9563;SDS011;4820;50.870;4.702;2022-12-26T09:52:34;2.53;;;1.25;;
9563;SDS011;4820;50.870;4.702;2022-12-26T09:55:15;12.07;;;8.32;;
9563;SDS011;4820;50.870;4.702;2022-12-26T09:57:45;4.68;;;1.67;;
9563;SDS011;4820;50.870;4.702;2022-12-26T10:00:19;4.82;;;1.40;;
9563;SDS011;4820;50.870;4.702;2022-12-26T10:02:53;3.80;;;1.40;;
9563;SDS011;4820;50.870;4.702;2022-12-26T10:05:21;3.70;;;1.38;;
9563;SDS011;4820;50.870;4.702;2022-12-26T10:08:24;5.15;;;1.67;;
9563;SDS011;4820;50.870;4.702;2022-12-26T10:11:00;6.50;;;1.67;;
9563;SDS011;4820;50.870;4.702;2022-12-26T10:16:02;5.97;;;1.70;;
9563;SDS011;4820;50.870;4.702;2022-12-26T10:18:44;3.53;;;1.23;;
9563;SDS011;4820;50.870;4.702;2022-12-26T10:24:15;3.15;;;1.33;;
9563;SDS011;4820;50.870;4.702;2022-12-26T10:26:47;3.58;;;1.40;;
9563;SDS011;4820;50.870;4.702;2022-12-26T10:29:19;3.75;;;1.40;;
9563;SDS011;4820;50.870;4.702;2022-12-26T10:31:57;3.35;;;1.20;;
9563;SDS011;4820;50.870;4.702;2022-12-26T10:34:30;3.38;;;1.25;;
9563;SDS011;4820;50.870;4.702;2022-12-26T10:40:01;3.88;;;1.38;;
9563;SDS011;4820;50.870;4.702;2022-12-26T10:42:43;2.63;;;1.25;;
9563;SDS011;4820;50.870;4.702;2022-12-26T10:45:17;4.65;;;1.30;;
9563;SDS011;4820;50.870;4.702;2022-12-26T10:47:48;3.55;;;1.40;;
9563;SDS011;4820;50.870;4.702;2022-12-26T10:50:16;2.95;;;1.50;;
9563;SDS011;4820;50.870;4.702;2022-12-26T10:52:44;3.25;;;1.20;;
9563;SDS011;4820;50.870;4.702;2022-12-26T10:55:12;2.92;;;1.13;;
9563;SDS011;4820;50.870;4.702;2022-12-26T10:57:39;3.28;;;1.40;;
9563;SDS011;4820;50.870;4.702;2022-12-26T11:00:18;2.45;;;1.05;;
9563;SDS011;4820;50.870;4.702;2022-12-26T11:03:00;3.13;;;1.23;;
9563;SDS011;4820;50.870;4.702;2022-12-26T11:05:30;4.85;;;1.65;;
9563;SDS011;4820;50.870;4.702;2022-12-26T11:08:05;2.95;;;1.40;;
9563;SDS011;4820;50.870;4.702;2022-12-26T11:10:34;1.98;;;1.23;;
9563;SDS011;4820;50.870;4.702;2022-12-26T11:13:05;2.95;;;1.20;;
9563;SDS011;4820;50.870;4.702;2022-12-26T11:18:21;3.15;;;1.25;;
9563;SDS011;4820;50.870;4.702;2022-12-26T11:20:51;4.20;;;1.83;;
9563;SDS011;4820;50.870;4.702;2022-12-26T11:23:20;5.00;;;1.63;;
9563;SDS011;4820;50.870;4.702;2022-12-26T11:25:52;4.70;;;1.60;;
9563;SDS011;4820;50.870;4.702;2022-12-26T11:31:00;4.22;;;2.00;;
9563;SDS011;4820;50.870;4.702;2022-12-26T11:33:32;4.45;;;1.65;;
9563;SDS011;4820;50.870;4.702;2022-12-26T11:38:39;3.60;;;1.50;;
9563;SDS011;4820;50.870;4.702;2022-12-26T11:41:12;3.97;;;1.48;;
9563;SDS011;4820;50.870;4.702;2022-12-26T11:44:41;3.03;;;1.10;;
9563;SDS011;4820;50.870;4.702;2022-12-26T11:46:45;3.95;;;1.35;;
9563;SDS011;4820;50.870;4.702;2022-12-26T11:49:16;2.90;;;1.10;;
9563;SDS011;4820;50.870;4.702;2022-12-26T11:51:46;2.28;;;1.00;;
9563;SDS011;4820;50.870;4.702;2022-12-26T11:57:01;2.38;;;1.00;;
9563;SDS011;4820;50.870;4.702;2022-12-26T11:59:33;6.05;;;1.80;;
9563;SDS011;4820;50.870;4.702;2022-12-26T12:04:42;4.30;;;1.55;;
9563;SDS011;4820;50.870;4.702;2022-12-26T12:07:13;7.80;;;2.15;;
9563;SDS011;4820;50.870;4.702;2022-12-26T12:10:09;4.20;;;1.45;;
9563;SDS011;4820;50.870;4.702;2022-12-26T12:13:05;6.57;;;1.70;;
9563;SDS011;4820;50.870;4.702;2022-12-26T12:15:36;4.47;;;1.70;;
9563;SDS011;4820;50.870;4.702;2022-12-26T12:18:27;5.32;;;1.80;;
9563;SDS011;4820;50.870;4.702;2022-12-26T12:21:10;6.63;;;1.90;;
9563;SDS011;4820;50.870;4.702;2022-12-26T12:32:16;5.35;;;1.80;;
9563;SDS011;4820;50.870;4.702;2022-12-26T12:35:11;4.85;;;1.80;;
9563;SDS011;4820;50.870;4.702;2022-12-26T12:43:36;4.75;;;1.52;;
9563;SDS011;4820;50.870;4.702;2022-12-26T12:46:53;3.50;;;1.50;;
9563;SDS011;4820;50.870;4.702;2022-12-26T13:01:54;5.47;;;1.83;;
9563;SDS011;4820;50.870;4.702;2022-12-26T13:04:28;6.20;;;2.40;;
9563;SDS011;4820;50.870;4.702;2022-12-26T13:07:02;5.53;;;1.95;;
9563;SDS011;4820;50.870;4.702;2022-12-26T13:09:51;5.93;;;1.77;;
9563;SDS011;4820;50.870;4.702;2022-12-26T13:12:25;6.00;;;2.10;;
9563;SDS011;4820;50.870;4.702;2022-12-26T13:14:59;5.50;;;1.90;;
9563;SDS011;4820;50.870;4.702;2022-12-26T13:17:34;5.68;;;1.98;;
9563;SDS011;4820;50.870;4.702;2022-12-26T13:20:15;8.45;;;2.10;;
9563;SDS011;4820;50.870;4.702;2022-12-26T13:22:48;6.43;;;2.10;;
9563;SDS011;4820;50.870;4.702;2022-12-26T13:25:43;4.00;;;1.77;;
9563;SDS011;4820;50.870;4.702;2022-12-26T13:28:15;6.38;;;2.20;;
9563;SDS011;4820;50.870;4.702;2022-12-26T13:30:45;5.55;;;1.90;;
9563;SDS011;4820;50.870;4.702;2022-12-26T13:33:17;4.38;;;1.70;;
9563;SDS011;4820;50.870;4.702;2022-12-26T13:35:51;5.10;;;1.85;;
9563;SDS011;4820;50.870;4.702;2022-12-26T13:38:20;5.93;;;2.00;;
9563;SDS011;4820;50.870;4.702;2022-12-26T13:40:49;5.47;;;1.75;;
9563;SDS011;4820;50.870;4.702;2022-12-26T13:43:57;5.25;;;1.92;;
9563;SDS011;4820;50.870;4.702;2022-12-26T13:57:24;5.32;;;1.98;;
9563;SDS011;4820;50.870;4.702;2022-12-26T14:11:48;5.68;;;2.05;;
9563;SDS011;4820;50.870;4.702;2022-12-26T14:23:14;4.00;;;1.83;;
9563;SDS011;4820;50.870;4.702;2022-12-26T14:31:15;6.55;;;2.10;;
9563;SDS011;4820;50.870;4.702;2022-12-26T14:33:50;4.93;;;1.80;;
9563;SDS011;4820;50.870;4.702;2022-12-26T14:44:50;5.32;;;1.60;;
9563;SDS011;4820;50.870;4.702;2022-12-26T14:47:33;5.45;;;2.00;;
9563;SDS011;4820;50.870;4.702;2022-12-26T15:06:30;6.72;;;1.70;;
9563;SDS011;4820;50.870;4.702;2022-12-26T15:09:10;4.40;;;1.77;;
9563;SDS011;4820;50.870;4.702;2022-12-26T15:21:54;5.60;;;1.70;;
9563;SDS011;4820;50.870;4.702;2022-12-26T15:32:23;4.07;;;1.50;;
9563;SDS011;4820;50.870;4.702;2022-12-26T15:34:54;4.43;;;1.50;;
9563;SDS011;4820;50.870;4.702;2022-12-26T15:46:13;4.20;;;1.77;;
9563;SDS011;4820;50.870;4.702;2022-12-26T16:02:28;5.70;;;1.60;;
9563;SDS011;4820;50.870;4.702;2022-12-26T16:11:18;3.85;;;1.52;;
9563;SDS011;4820;50.870;4.702;2022-12-26T16:13:59;4.97;;;1.88;;
9563;SDS011;4820;50.870;4.702;2022-12-26T16:16:28;3.38;;;1.80;;
9563;SDS011;4820;50.870;4.702;2022-12-26T16:18:54;5.70;;;1.40;;
9563;SDS011;4820;50.870;4.702;2022-12-26T16:21:21;4.55;;;1.83;;
9563;SDS011;4820;50.870;4.702;2022-12-26T16:24:09;6.75;;;2.00;;
9563;SDS011;4820;50.870;4.702;2022-12-26T16:26:38;3.75;;;1.60;;
9563;SDS011;4820;50.870;4.702;2022-12-26T16:29:07;3.47;;;1.90;;
9563;SDS011;4820;50.870;4.702;2022-12-26T16:31:40;5.50;;;2.13;;
9563;SDS011;4820;50.870;4.702;2022-12-26T16:34:06;6.32;;;1.98;;
9563;SDS011;4820;50.870;4.702;2022-12-26T16:36:36;6.75;;;2.30;;
9563;SDS011;4820;50.870;4.702;2022-12-26T16:39:06;6.85;;;1.70;;
9563;SDS011;4820;50.870;4.702;2022-12-26T16:41:33;9.15;;;2.20;;
9563;SDS011;4820;50.870;4.702;2022-12-26T16:44:26;7.20;;;2.15;;
9563;SDS011;4820;50.870;4.702;2022-12-26T16:46:55;3.78;;;1.80;;
9563;SDS011;4820;50.870;4.702;2022-12-26T16:49:24;6.57;;;2.25;;
9563;SDS011;4820;50.870;4.702;2022-12-26T16:51:50;4.63;;;2.17;;
9563;SDS011;4820;50.870;4.702;2022-12-26T16:54:24;6.88;;;2.40;;
9563;SDS011;4820;50.870;4.702;2022-12-26T17:02:20;6.13;;;2.13;;
9563;SDS011;4820;50.870;4.702;2022-12-26T17:04:53;5.65;;;2.42;;
9563;SDS011;4820;50.870;4.702;2022-12-26T17:07:24;7.28;;;2.10;;
9563;SDS011;4820;50.870;4.702;2022-12-26T17:09:52;5.40;;;2.05;;
9563;SDS011;4820;50.870;4.702;2022-12-26T17:12:30;7.43;;;2.08;;
9563;SDS011;4820;50.870;4.702;2022-12-26T17:15:02;3.75;;;1.95;;
9563;SDS011;4820;50.870;4.702;2022-12-26T17:17:36;5.50;;;2.08;;
9563;SDS011;4820;50.870;4.702;2022-12-26T17:22:54;7.10;;;2.17;;
9563;SDS011;4820;50.870;4.702;2022-12-26T17:25:27;6.30;;;2.10;;
9563;SDS011;4820;50.870;4.702;2022-12-26T17:30:33;6.13;;;2.50;;
9563;SDS011;4820;50.870;4.702;2022-12-26T17:33:01;7.63;;;2.35;;
9563;SDS011;4820;50.870;4.702;2022-12-26T17:35:29;6.35;;;2.47;;
9563;SDS011;4820;50.870;4.702;2022-12-26T17:37:59;7.72;;;2.75;;
9563;SDS011;4820;50.870;4.702;2022-12-26T17:40:27;6.32;;;2.40;;
9563;SDS011;4820;50.870;4.702;2022-12-26T17:45:40;9.95;;;2.97;;
9563;SDS011;4820;50.870;4.702;2022-12-26T17:48:09;7.30;;;2.78;;
9563;SDS011;4820;50.870;4.702;2022-12-26T17:50:36;6.30;;;2.25;;
9563;SDS011;4820;50.870;4.702;2022-12-26T17:56:06;5.90;;;2.80;;
9563;SDS011;4820;50.870;4.702;2022-12-26T17:58:37;7.45;;;2.70;;
9563;SDS011;4820;50.870;4.702;2022-12-26T18:01:03;10.93;;;3.10;;
9563;SDS011;4820;50.870;4.702;2022-12-26T18:03:28;6.30;;;3.08;;
9563;SDS011;4820;50.870;4.702;2022-12-26T18:05:54;7.20;;;3.03;;
9563;SDS011;4820;50.870;4.702;2022-12-26T18:11:00;7.05;;;2.50;;
9563;SDS011;4820;50.870;4.702;2022-12-26T18:13:27;8.25;;;2.83;;
9563;SDS011;4820;50.870;4.702;2022-12-26T18:15:53;8.00;;;3.05;;
9563;SDS011;4820;50.870;4.702;2022-12-26T18:18:21;6.80;;;2.97;;
9563;SDS011;4820;50.870;4.702;2022-12-26T18:20:49;6.93;;;2.80;;
9563;SDS011;4820;50.870;4.702;2022-12-26T18:23:15;7.35;;;3.30;;
9563;SDS011;4820;50.870;4.702;2022-12-26T18:25:41;9.13;;;3.33;;
9563;SDS011;4820;50.870;4.702;2022-12-26T18:28:12;8.88;;;3.75;;
9563;SDS011;4820;50.870;4.702;2022-12-26T18:30:38;7.95;;;2.88;;
9563;SDS011;4820;50.870;4.702;2022-12-26T18:33:04;5.78;;;3.45;;
9563;SDS011;4820;50.870;4.702;2022-12-26T18:35:30;6.57;;;3.05;;
9563;SDS011;4820;50.870;4.702;2022-12-26T18:37:56;10.32;;;4.22;;
9563;SDS011;4820;50.870;4.702;2022-12-26T18:40:37;7.53;;;3.78;;
9563;SDS011;4820;50.870;4.702;2022-12-26T18:43:05;10.77;;;4.18;;
9563;SDS011;4820;50.870;4.702;2022-12-26T18:45:32;9.77;;;3.80;;
9563;SDS011;4820;50.870;4.702;2022-12-26T18:47:58;7.60;;;3.65;;
9563;SDS011;4820;50.870;4.702;2022-12-26T18:50:25;8.13;;;3.75;;
9563;SDS011;4820;50.870;4.702;2022-12-26T18:52:52;12.23;;;4.10;;
9563;SDS011;4820;50.870;4.702;2022-12-26T18:55:17;8.05;;;3.92;;
9563;SDS011;4820;50.870;4.702;2022-12-26T18:57:43;7.47;;;3.80;;
9563;SDS011;4820;50.870;4.702;2022-12-26T19:00:12;10.95;;;4.20;;
9563;SDS011;4820;50.870;4.702;2022-12-26T19:02:39;7.72;;;3.75;;
9563;SDS011;4820;50.870;4.702;2022-12-26T19:05:05;10.82;;;4.25;;
9563;SDS011;4820;50.870;4.702;2022-12-26T19:07:38;9.40;;;4.07;;
9563;SDS011;4820;50.870;4.702;2022-12-26T19:10:04;6.90;;;3.70;;
9563;SDS011;4820;50.870;4.702;2022-12-26T19:12:30;8.77;;;3.65;;
9563;SDS011;4820;50.870;4.702;2022-12-26T19:14:55;10.15;;;4.40;;
9563;SDS011;4820;50.870;4.702;2022-12-26T19:17:21;5.95;;;3.45;;
9563;SDS011;4820;50.870;4.702;2022-12-26T19:19:46;6.63;;;3.47;;
9563;SDS011;4820;50.870;4.702;2022-12-26T19:22:12;7.78;;;3.95;;
9563;SDS011;4820;50.870;4.702;2022-12-26T19:24:38;9.07;;;3.70;;
9563;SDS011;4820;50.870;4.702;2022-12-26T19:27:03;9.40;;;4.10;;
9563;SDS011;4820;50.870;4.702;2022-12-26T19:29:29;6.88;;;3.47;;
9563;SDS011;4820;50.870;4.702;2022-12-26T19:31:55;7.93;;;3.67;;
9563;SDS011;4820;50.870;4.702;2022-12-26T19:34:21;9.38;;;3.83;;
9563;SDS011;4820;50.870;4.702;2022-12-26T19:36:47;5.93;;;3.70;;
9563;SDS011;4820;50.870;4.702;2022-12-26T19:39:13;7.63;;;3.90;;